createdAt,value
2022-08-04T00:00:49.683Z,3.57
2022-08-04T00:03:16.916Z,3.69
2022-08-04T00:05:44.156Z,3.46
2022-08-04T00:08:11.426Z,3.30
2022-08-04T00:10:38.671Z,3.27
2022-08-04T00:13:05.918Z,3.12
2022-08-04T00:15:33.174Z,2.88
2022-08-04T00:18:00.468Z,2.85
2022-08-04T00:20:27.717Z,2.97
2022-08-04T00:22:54.959Z,2.87
2022-08-04T00:25:22.316Z,2.65
2022-08-04T00:27:49.556Z,2.76
2022-08-04T00:30:16.829Z,2.55
2022-08-04T00:32:44.203Z,2.42
2022-08-04T00:35:11.446Z,2.44
2022-08-04T00:37:38.694Z,2.62
2022-08-04T00:40:05.962Z,2.36
2022-08-04T00:42:33.313Z,2.50
2022-08-04T00:45:03.767Z,3.12
2022-08-04T00:47:33.033Z,2.46
2022-08-04T00:50:00.298Z,2.78
2022-08-04T00:52:30.691Z,2.91
2022-08-04T00:55:00.175Z,3.05
2022-08-04T00:57:30.157Z,2.79
2022-08-04T01:00:02.039Z,3.04
2022-08-04T01:02:29.286Z,3.07
2022-08-04T01:04:56.533Z,2.98
2022-08-04T01:07:23.926Z,3.14
2022-08-04T01:09:51.239Z,2.85
2022-08-04T01:12:18.524Z,2.70
2022-08-04T01:14:45.774Z,2.60
2022-08-04T01:17:13.126Z,2.58
2022-08-04T01:19:40.424Z,2.61
2022-08-04T01:22:07.665Z,2.50
2022-08-04T01:24:34.929Z,2.31
2022-08-04T01:27:03.949Z,2.10
2022-08-04T01:29:36.985Z,2.26
2022-08-04T01:32:13.866Z,2.58
2022-08-04T01:34:41.227Z,2.57
2022-08-04T01:37:08.486Z,2.29
2022-08-04T01:39:35.765Z,2.27
2022-08-04T01:42:03.049Z,2.32
2022-08-04T01:44:30.428Z,2.24
2022-08-04T01:46:59.431Z,2.49
2022-08-04T01:49:26.714Z,2.44
2022-08-04T01:51:53.979Z,2.54
2022-08-04T01:54:21.228Z,2.59
2022-08-04T01:56:48.487Z,2.47
2022-08-04T01:59:15.720Z,2.39
2022-08-04T02:01:43.092Z,2.47
2022-08-04T02:04:20.593Z,2.34
2022-08-04T02:06:50.285Z,2.34
2022-08-04T02:09:17.539Z,2.53
2022-08-04T02:11:44.775Z,2.32
2022-08-04T02:14:12.033Z,2.41
2022-08-04T02:16:39.274Z,2.24
2022-08-04T02:19:06.537Z,2.33
2022-08-04T02:21:42.288Z,2.34
2022-08-04T02:24:10.227Z,2.30
2022-08-04T02:26:37.473Z,2.23
2022-08-04T02:29:04.719Z,2.33
2022-08-04T02:31:32.817Z,2.27
2022-08-04T02:34:00.092Z,2.18
2022-08-04T02:36:27.361Z,2.03
2022-08-04T02:38:54.658Z,2.11
2022-08-04T02:41:21.969Z,2.09
2022-08-04T02:43:51.363Z,2.26
2022-08-04T02:46:19.935Z,2.21
2022-08-04T02:48:47.312Z,2.34
2022-08-04T02:51:14.565Z,2.41
2022-08-04T02:53:41.829Z,2.26
2022-08-04T02:56:09.102Z,2.11
2022-08-04T02:58:36.349Z,2.23
2022-08-04T03:01:03.652Z,2.21
2022-08-04T03:03:30.977Z,2.09
2022-08-04T03:06:01.788Z,2.21
2022-08-04T03:08:29.201Z,2.23
2022-08-04T03:10:56.557Z,2.40
2022-08-04T03:13:23.800Z,2.18
2022-08-04T03:15:51.050Z,2.17
2022-08-04T03:18:18.315Z,2.15
2022-08-04T03:20:45.549Z,2.29
2022-08-04T03:23:14.046Z,2.16
2022-08-04T03:25:57.100Z,2.30
2022-08-04T03:28:24.960Z,2.28
2022-08-04T03:30:52.268Z,2.19
2022-08-04T03:33:21.496Z,2.11
2022-08-04T03:35:48.746Z,2.39
2022-08-04T03:38:16.103Z,2.29
2022-08-04T03:40:43.357Z,2.25
2022-08-04T03:43:10.592Z,2.23
2022-08-04T03:45:57.816Z,2.09
2022-08-04T03:48:25.053Z,2.26
2022-08-04T03:50:52.288Z,2.31
2022-08-04T03:53:19.548Z,2.50
2022-08-04T03:55:46.798Z,2.34
2022-08-04T03:58:14.049Z,2.26
2022-08-04T04:00:41.285Z,2.46
2022-08-04T04:03:08.554Z,2.67
2022-08-04T04:05:58.948Z,2.47
2022-08-04T04:08:23.018Z,2.62
2022-08-04T04:10:51.227Z,2.91
2022-08-04T04:13:31.395Z,2.65
2022-08-04T04:15:58.643Z,2.58
2022-08-04T04:18:25.889Z,2.50
2022-08-04T04:20:53.161Z,2.79
2022-08-04T04:23:20.412Z,2.81
2022-08-04T04:25:48.124Z,2.65
2022-08-04T04:28:43.647Z,2.72
2022-08-04T04:31:02.624Z,2.50
2022-08-04T04:33:29.860Z,2.77
2022-08-04T04:35:57.117Z,2.56
2022-08-04T04:38:24.509Z,2.38
2022-08-04T04:40:51.762Z,2.53
2022-08-04T04:43:19.007Z,2.81
2022-08-04T04:45:46.376Z,2.69
2022-08-04T04:48:13.611Z,2.63
2022-08-04T04:50:40.917Z,2.30
2022-08-04T04:53:08.181Z,2.70
2022-08-04T04:55:35.410Z,2.41
2022-08-04T04:58:02.660Z,2.47
2022-08-04T05:00:30.019Z,2.61
2022-08-04T05:03:00.666Z,2.58
2022-08-04T05:05:29.000Z,2.42
2022-08-04T05:07:56.266Z,2.51
2022-08-04T05:10:23.504Z,2.35
2022-08-04T05:14:32.933Z,2.64
2022-08-04T05:15:37.965Z,2.53
2022-08-04T05:18:05.221Z,2.56
2022-08-04T05:20:32.464Z,2.59
2022-08-04T05:22:59.921Z,2.79
2022-08-04T05:25:27.162Z,2.50
2022-08-04T05:27:54.429Z,2.48
2022-08-04T05:30:21.690Z,2.50
2022-08-04T05:32:48.948Z,2.53
2022-08-04T05:35:52.933Z,2.43
2022-08-04T05:38:12.024Z,2.50
2022-08-04T05:40:39.272Z,2.67
2022-08-04T05:43:06.538Z,2.45
2022-08-04T05:45:39.042Z,2.79
2022-08-04T05:48:06.790Z,2.75
2022-08-04T05:50:34.060Z,2.56
2022-08-04T05:53:02.796Z,2.70
2022-08-04T05:55:48.669Z,2.83
2022-08-04T05:58:17.300Z,2.53
2022-08-04T06:00:52.328Z,2.62
2022-08-04T06:03:19.917Z,2.53
2022-08-04T06:05:47.348Z,2.62
2022-08-04T06:08:14.624Z,2.45
2022-08-04T06:10:41.867Z,2.68
2022-08-04T06:13:09.115Z,2.53
2022-08-04T06:15:58.313Z,2.75
2022-08-04T06:18:42.215Z,2.50
2022-08-04T06:21:16.450Z,2.69
2022-08-04T06:23:52.920Z,2.66
2022-08-04T06:26:28.261Z,2.71
2022-08-04T06:28:55.527Z,2.66
2022-08-04T06:32:26.791Z,2.70
2022-08-04T06:34:09.977Z,2.76
2022-08-04T06:36:37.221Z,2.95
2022-08-04T06:39:04.483Z,2.99
2022-08-04T06:41:31.769Z,2.98
2022-08-04T06:43:59.012Z,3.00
2022-08-04T06:46:26.269Z,3.02
2022-08-04T06:48:53.536Z,3.09
2022-08-04T06:51:28.024Z,3.04
2022-08-04T06:54:00.584Z,3.38
2022-08-04T06:56:27.905Z,3.23
2022-08-04T06:58:55.168Z,3.27
2022-08-04T07:01:22.486Z,3.50
2022-08-04T07:03:50.778Z,3.22
2022-08-04T07:06:18.208Z,3.17
2022-08-04T07:08:45.664Z,3.34
2022-08-04T07:11:12.900Z,3.27
2022-08-04T07:13:44.859Z,3.50
2022-08-04T07:16:12.537Z,3.78
2022-08-04T07:18:39.797Z,3.61
2022-08-04T07:21:07.067Z,3.67
2022-08-04T07:23:34.300Z,3.79
2022-08-04T07:26:12.684Z,3.45
2022-08-04T07:28:40.449Z,3.36
2022-08-04T07:31:07.710Z,3.59
2022-08-04T07:33:34.963Z,3.42
2022-08-04T07:36:09.243Z,3.44
2022-08-04T07:38:51.510Z,3.43
2022-08-04T07:44:06.238Z,3.72
2022-08-04T07:46:33.515Z,3.43
2022-08-04T07:49:00.794Z,3.74
2022-08-04T07:51:28.039Z,3.45
2022-08-04T07:53:56.456Z,3.57
2022-08-04T07:56:23.981Z,3.44
2022-08-04T07:58:52.968Z,3.67
2022-08-04T08:01:20.253Z,3.38
2022-08-04T08:03:47.547Z,3.68
2022-08-04T08:06:17.159Z,3.66
2022-08-04T08:08:59.164Z,3.63
2022-08-04T08:12:34.090Z,3.57
2022-08-04T08:14:13.621Z,3.72
2022-08-04T08:16:40.860Z,3.78
2022-08-04T08:19:08.103Z,3.71
2022-08-04T08:21:35.375Z,3.81
2022-08-04T08:24:22.669Z,3.95
2022-08-04T08:26:49.913Z,4.07
2022-08-04T08:29:17.274Z,3.79
2022-08-04T08:31:58.439Z,3.85
2022-08-04T08:34:28.589Z,3.96
2022-08-04T08:36:56.266Z,3.79
2022-08-04T08:39:24.876Z,3.64
2022-08-04T08:41:52.278Z,4.03
2022-08-04T08:44:30.073Z,3.95
2022-08-04T08:47:03.866Z,4.00
2022-08-04T08:50:01.993Z,3.57
2022-08-04T08:53:00.519Z,3.97
2022-08-04T08:55:05.554Z,4.22
2022-08-04T08:57:32.822Z,3.91
2022-08-04T09:00:00.073Z,4.01
2022-08-04T09:02:27.338Z,4.03
2022-08-04T09:04:54.590Z,3.79
2022-08-04T09:07:22.113Z,4.04
2022-08-04T09:09:49.471Z,4.06
2022-08-04T09:12:16.741Z,3.79
2022-08-04T09:14:47.318Z,3.64
2022-08-04T09:17:14.616Z,3.74
2022-08-04T09:19:41.900Z,3.62
2022-08-04T09:22:12.509Z,3.48
2022-08-04T09:24:40.157Z,3.54
2022-08-04T09:27:07.402Z,3.92
2022-08-04T09:29:34.649Z,3.59
2022-08-04T09:32:06.929Z,3.58
2022-08-04T09:34:35.014Z,3.57
2022-08-04T09:37:02.281Z,3.58
2022-08-04T09:39:29.604Z,3.42
2022-08-04T09:41:57.798Z,3.58
2022-08-04T09:44:48.952Z,3.82
2022-08-04T09:47:14.108Z,3.45
2022-08-04T09:49:41.466Z,3.63
2022-08-04T09:52:08.716Z,3.72
2022-08-04T09:54:37.960Z,3.83
2022-08-04T09:57:05.221Z,3.76
2022-08-04T09:59:32.482Z,3.69
2022-08-04T10:02:00.438Z,3.61
2022-08-04T10:04:27.760Z,3.71
2022-08-04T10:06:55.005Z,3.48
2022-08-04T10:09:22.287Z,3.73
2022-08-04T10:11:54.729Z,3.37
2022-08-04T10:14:23.682Z,3.50
2022-08-04T10:16:50.964Z,3.49
2022-08-04T10:19:18.204Z,3.26
2022-08-04T10:21:59.052Z,3.40
2022-08-04T10:24:32.697Z,3.60
2022-08-04T10:26:59.974Z,3.60
2022-08-04T10:29:27.212Z,3.60
2022-08-04T10:31:54.488Z,3.52
2022-08-04T10:34:21.738Z,3.34
2022-08-04T10:36:48.987Z,3.25
2022-08-04T10:39:42.728Z,3.41
2022-08-04T10:42:03.941Z,3.49
2022-08-04T10:44:41.936Z,3.61
2022-08-04T10:47:09.988Z,3.32
2022-08-04T10:49:37.351Z,3.21
2022-08-04T10:52:04.634Z,3.18
2022-08-04T10:54:31.892Z,3.26
2022-08-04T10:56:59.145Z,3.34
2022-08-04T10:59:26.422Z,3.35
2022-08-04T11:02:02.633Z,3.29
2022-08-04T11:04:30.739Z,2.99
2022-08-04T11:06:57.995Z,3.55
2022-08-04T11:09:25.248Z,3.43
2022-08-04T11:11:56.994Z,3.30
2022-08-04T11:14:29.090Z,3.37
2022-08-04T11:16:56.374Z,3.39
2022-08-04T11:19:23.946Z,3.43
2022-08-04T11:22:11.163Z,3.49
2022-08-04T11:24:38.398Z,3.43
2022-08-04T11:27:05.642Z,3.10
2022-08-04T11:29:32.907Z,3.36
2022-08-04T11:32:00.352Z,3.51
2022-08-04T11:34:27.682Z,3.20
2022-08-04T11:36:55.048Z,3.46
2022-08-04T11:39:22.708Z,3.33
2022-08-04T11:41:50.241Z,3.33
2022-08-04T11:44:17.939Z,3.47
2022-08-04T11:46:45.319Z,3.23
2022-08-04T11:49:12.574Z,3.40
2022-08-04T11:51:39.882Z,3.09
2022-08-04T11:54:07.215Z,3.23
2022-08-04T11:56:36.731Z,3.54
2022-08-04T11:59:04.811Z,3.39
2022-08-04T12:01:32.169Z,2.79
2022-08-04T12:04:03.462Z,3.01
2022-08-04T12:06:31.443Z,3.00
2022-08-04T12:08:58.851Z,2.61
2022-08-04T12:11:26.232Z,3.08
2022-08-04T12:13:56.322Z,3.04
2022-08-04T12:16:30.622Z,3.36
2022-08-04T12:18:58.208Z,3.06
2022-08-04T12:21:26.692Z,3.07
2022-08-04T12:24:00.449Z,3.24
2022-08-04T12:26:28.160Z,2.99
2022-08-04T12:29:11.451Z,3.25
2022-08-04T12:31:39.032Z,2.94
2022-08-04T12:34:06.935Z,2.93
2022-08-04T12:36:34.484Z,2.81
2022-08-04T12:39:02.505Z,3.00
2022-08-04T12:41:29.787Z,2.85
2022-08-04T12:43:57.137Z,2.53
2022-08-04T12:46:24.388Z,2.78
2022-08-04T12:48:51.655Z,2.98
2022-08-04T12:52:07.117Z,2.93
2022-08-04T12:54:06.212Z,2.84
2022-08-04T12:56:33.512Z,2.82
2022-08-04T12:59:00.751Z,2.72
2022-08-04T13:02:07.365Z,2.74
2022-08-04T13:04:15.232Z,3.03
2022-08-04T13:06:42.478Z,3.11
2022-08-04T13:09:11.366Z,3.01
2022-08-04T13:11:45.720Z,2.98
2022-08-04T13:14:26.723Z,2.81
2022-08-04T13:16:54.594Z,2.66
2022-08-04T13:19:21.848Z,2.99
2022-08-04T13:22:01.979Z,3.03
2022-08-04T13:24:32.307Z,2.76
2022-08-04T13:27:03.918Z,2.80
2022-08-04T13:30:00.123Z,2.99
2022-08-04T13:32:18.696Z,2.94
2022-08-04T13:34:49.599Z,3.34
2022-08-04T13:37:21.003Z,3.36
2022-08-04T13:39:55.864Z,3.60
2022-08-04T13:42:23.615Z,3.75
2022-08-04T13:44:50.858Z,3.42
2022-08-04T13:47:18.106Z,3.42
2022-08-04T13:50:08.368Z,3.30
2022-08-04T13:52:32.665Z,3.38
2022-08-04T13:54:59.903Z,3.51
2022-08-04T13:57:27.147Z,3.61
2022-08-04T13:59:54.413Z,3.47
2022-08-04T14:02:21.694Z,3.78
2022-08-04T14:04:48.948Z,3.57
2022-08-04T14:07:20.662Z,3.20
2022-08-04T14:10:03.661Z,3.29
2022-08-04T14:12:38.611Z,3.51
2022-08-04T14:15:13.102Z,3.42
2022-08-04T14:17:40.379Z,3.78
2022-08-04T14:20:07.620Z,3.40
2022-08-04T14:22:34.894Z,3.54
2022-08-04T14:25:02.183Z,3.58
2022-08-04T14:27:29.439Z,3.38
2022-08-04T14:29:56.709Z,3.65
2022-08-04T14:32:26.343Z,3.69
2022-08-04T14:34:53.958Z,3.96
2022-08-04T14:37:21.707Z,3.59
2022-08-04T14:40:18.236Z,3.69
2022-08-04T14:42:36.402Z,3.60
2022-08-04T14:45:03.885Z,3.58
2022-08-04T14:47:31.256Z,3.76
2022-08-04T14:49:58.728Z,3.86
2022-08-04T14:52:26.141Z,3.67
2022-08-04T14:54:53.536Z,3.76
2022-08-04T14:57:20.883Z,3.29
2022-08-04T15:00:00.870Z,3.39
2022-08-04T15:02:29.825Z,3.39
2022-08-04T15:04:57.897Z,3.41
2022-08-04T15:07:25.137Z,3.68
2022-08-04T15:09:52.444Z,3.74
2022-08-04T15:12:19.737Z,3.71
2022-08-04T15:14:47.120Z,4.07
2022-08-04T15:17:29.242Z,3.62
2022-08-04T15:19:58.032Z,3.99
2022-08-04T15:22:25.855Z,3.79
2022-08-04T15:24:55.635Z,3.72
2022-08-04T15:27:23.220Z,3.88
2022-08-04T15:30:00.237Z,3.87
2022-08-04T15:32:28.837Z,3.55
2022-08-04T15:34:56.075Z,3.76
2022-08-04T15:37:23.315Z,4.02
2022-08-04T15:39:50.598Z,3.68
2022-08-04T15:42:21.460Z,3.92
2022-08-04T15:44:49.012Z,3.76
2022-08-04T15:47:16.274Z,3.81
2022-08-04T15:49:43.533Z,3.81
2022-08-04T15:52:12.259Z,3.67
2022-08-04T15:54:39.867Z,3.75
2022-08-04T15:57:09.904Z,3.80
2022-08-04T15:59:37.166Z,3.84
2022-08-04T16:02:11.415Z,3.86
2022-08-04T16:04:39.209Z,3.94
2022-08-04T16:07:06.478Z,3.76
2022-08-04T16:09:45.971Z,3.79
2022-08-04T16:12:13.954Z,3.84
2022-08-04T16:14:41.417Z,3.74
2022-08-04T16:17:08.670Z,4.03
2022-08-04T16:19:36.259Z,3.81
2022-08-04T16:22:03.525Z,3.66
2022-08-04T16:24:30.786Z,4.04
2022-08-04T16:26:58.034Z,3.86
2022-08-04T16:29:25.310Z,3.60
2022-08-04T16:31:52.814Z,4.09
2022-08-04T16:34:50.283Z,4.07
2022-08-04T16:37:07.260Z,3.78
2022-08-04T16:39:34.516Z,3.72
2022-08-04T16:42:18.690Z,3.42
2022-08-04T16:44:53.758Z,3.60
2022-08-04T16:47:22.417Z,3.91
2022-08-04T16:49:51.812Z,3.64
2022-08-04T16:52:19.487Z,3.61
2022-08-04T16:54:49.049Z,3.39
2022-08-04T16:57:16.454Z,3.54
2022-08-04T16:59:43.872Z,3.44
2022-08-04T17:02:11.531Z,3.45
2022-08-04T17:04:38.964Z,3.20
2022-08-04T17:07:06.237Z,3.48
2022-08-04T17:09:33.784Z,3.43
2022-08-04T17:12:01.128Z,3.50
2022-08-04T17:14:29.999Z,3.62
2022-08-04T17:16:58.511Z,3.70
2022-08-04T17:19:26.812Z,3.76
2022-08-04T17:21:57.583Z,3.49
2022-08-04T17:24:27.873Z,3.60
2022-08-04T17:26:55.145Z,3.73
2022-08-04T17:29:22.405Z,3.69
2022-08-04T17:31:53.363Z,3.62
2022-08-04T17:34:20.846Z,3.48
2022-08-04T17:36:48.684Z,3.83
2022-08-04T17:39:17.240Z,3.84
2022-08-04T17:41:49.210Z,4.01
2022-08-04T17:44:17.643Z,3.77
2022-08-04T17:46:48.423Z,3.83
2022-08-04T17:49:16.698Z,3.88
2022-08-04T17:52:04.112Z,3.87
2022-08-04T17:57:20.716Z,3.78
2022-08-04T17:59:57.192Z,3.61
2022-08-04T18:02:32.564Z,3.73
2022-08-04T18:05:06.818Z,3.65
2022-08-04T18:08:34.924Z,3.67
2022-08-04T18:10:32.992Z,3.63
2022-08-04T18:13:04.068Z,3.52
2022-08-04T18:15:46.397Z,3.58
2022-08-04T18:18:21.636Z,3.54
2022-08-04T18:20:50.654Z,3.49
2022-08-04T18:23:17.945Z,3.39
2022-08-04T18:25:51.638Z,3.26
2022-08-04T18:28:26.654Z,4.02
2022-08-04T18:30:55.631Z,4.08
2022-08-04T18:33:40.807Z,3.76
2022-08-04T18:36:32.521Z,3.41
2022-08-04T18:38:58.492Z,3.47
2022-08-04T18:41:26.466Z,3.68
2022-08-04T18:43:55.921Z,3.64
2022-08-04T18:46:23.950Z,3.53
2022-08-04T18:48:54.463Z,3.75
2022-08-04T18:51:24.925Z,3.76
2022-08-04T18:53:58.316Z,3.83
2022-08-04T18:56:29.641Z,3.82
2022-08-04T18:58:59.843Z,3.68
2022-08-04T19:01:29.692Z,3.79
2022-08-04T19:04:33.012Z,3.81
2022-08-04T19:07:24.350Z,3.75
2022-08-04T19:09:52.175Z,4.00
2022-08-04T19:12:27.339Z,4.06
2022-08-04T19:14:58.801Z,3.92
2022-08-04T19:17:49.958Z,3.95
2022-08-04T19:20:24.971Z,4.08
2022-08-04T19:24:29.761Z,4.37
2022-08-04T19:25:58.404Z,3.87
2022-08-04T19:28:29.843Z,4.24
2022-08-04T19:30:59.184Z,3.99
2022-08-04T19:33:28.540Z,3.90
2022-08-04T19:36:13.629Z,4.00
2022-08-04T19:38:44.640Z,3.87
2022-08-04T19:41:14.284Z,3.80
2022-08-04T19:43:43.758Z,3.83
2022-08-04T19:46:12.252Z,3.92
2022-08-04T19:48:39.712Z,3.89
2022-08-04T19:51:07.685Z,3.99
2022-08-04T19:53:37.963Z,4.10
2022-08-04T19:56:10.365Z,3.84
2022-08-04T19:58:39.487Z,4.07
2022-08-04T20:01:14.371Z,4.01
2022-08-04T20:04:09.405Z,4.02
2022-08-04T20:06:38.257Z,3.86
2022-08-04T20:09:24.798Z,4.18
2022-08-04T20:11:52.476Z,4.12
2022-08-04T20:14:31.447Z,4.22
2022-08-04T20:17:00.279Z,4.00
2022-08-04T20:19:27.539Z,3.80
2022-08-04T20:21:56.550Z,3.69
2022-08-04T20:24:38.115Z,4.08
2022-08-04T20:27:15.153Z,3.74
2022-08-04T20:29:46.251Z,4.02
2022-08-04T20:32:16.509Z,3.93
2022-08-04T20:34:46.637Z,4.37
2022-08-04T20:37:15.385Z,4.06
2022-08-04T20:39:43.027Z,4.25
2022-08-04T20:42:11.495Z,4.35
2022-08-04T20:44:42.254Z,4.02
2022-08-04T20:47:14.163Z,3.95
2022-08-04T20:49:41.456Z,3.46
2022-08-04T20:52:16.390Z,3.79
2022-08-04T20:54:48.413Z,3.94
2022-08-04T20:57:16.646Z,3.76
2022-08-04T20:59:59.484Z,3.82
2022-08-04T21:02:27.198Z,4.20
2022-08-04T21:04:54.470Z,3.81
2022-08-04T21:07:22.193Z,3.73
2022-08-04T21:09:49.929Z,3.68
2022-08-04T21:12:27.560Z,3.68
2022-08-04T21:14:55.931Z,3.69
2022-08-04T21:20:12.818Z,4.26
2022-08-04T21:22:41.003Z,4.13
2022-08-04T21:25:16.388Z,3.32
2022-08-04T21:27:43.889Z,3.32
2022-08-04T21:30:25.225Z,3.21
2022-08-04T21:32:53.471Z,3.01
2022-08-04T21:35:30.176Z,3.14
2022-08-04T21:38:16.633Z,3.00
2022-08-04T21:40:45.272Z,2.93
2022-08-04T21:43:14.620Z,3.13
2022-08-04T21:45:43.213Z,3.00
2022-08-04T21:48:15.613Z,3.03
2022-08-04T21:50:43.504Z,2.89
2022-08-04T21:53:14.089Z,3.09
2022-08-04T21:56:06.982Z,3.04
2022-08-04T21:58:33.996Z,3.10
2022-08-04T22:01:01.675Z,3.35
2022-08-04T22:03:53.507Z,3.13
2022-08-04T22:06:28.481Z,2.95
2022-08-04T22:08:56.321Z,2.96
2022-08-04T22:11:25.973Z,3.21
2022-08-04T22:14:10.635Z,3.01
2022-08-04T22:16:39.912Z,3.12
2022-08-04T22:19:08.914Z,3.38
2022-08-04T22:21:39.088Z,3.25
2022-08-04T22:24:13.672Z,3.14
2022-08-04T22:26:41.484Z,3.10
2022-08-04T22:29:14.478Z,2.93
2022-08-04T22:31:55.754Z,3.19
2022-08-04T22:34:24.156Z,3.12
2022-08-04T22:36:53.586Z,2.98
2022-08-04T22:39:23.348Z,3.30
2022-08-04T22:42:03.882Z,3.25
2022-08-04T22:44:33.051Z,3.07
2022-08-04T22:47:00.748Z,2.90
2022-08-04T22:49:31.676Z,3.28
2022-08-04T22:51:59.319Z,3.15
2022-08-04T22:54:28.482Z,3.22
2022-08-04T22:56:57.074Z,3.09
2022-08-04T22:59:24.315Z,3.46
2022-08-04T23:01:58.947Z,3.70
2022-08-04T23:04:28.696Z,3.77
2022-08-04T23:06:55.967Z,3.89
2022-08-04T23:09:49.514Z,3.73
2022-08-04T23:12:24.404Z,3.75
2022-08-04T23:14:53.581Z,3.56
2022-08-04T23:17:22.375Z,3.80
2022-08-04T23:19:57.705Z,3.69
2022-08-04T23:22:37.419Z,3.44
2022-08-04T23:25:16.090Z,3.33
2022-08-04T23:27:44.143Z,3.26
2022-08-04T23:30:18.666Z,3.54
2022-08-04T23:32:45.928Z,3.63
2022-08-04T23:35:15.061Z,3.48
2022-08-04T23:37:56.281Z,3.73
2022-08-04T23:40:32.251Z,3.86
2022-08-04T23:43:01.993Z,3.48
2022-08-04T23:46:04.557Z,3.76
2022-08-04T23:48:21.090Z,3.82
2022-08-04T23:50:48.524Z,3.79
2022-08-04T23:53:18.669Z,3.82
2022-08-04T23:55:49.701Z,3.73
2022-08-04T23:58:20.960Z,3.90
